Weather at Lier flyplass

Public forecast

Using degrees Celsius for public forecast. Weather courtesy of forecast.io.

Closest aviation weather report (METAR) to Lier flyplass

Closest report is Oslo, Fornebu Airport, 10.2 nm (18.8 km) E. Retrieved 2021/04/12 20:50 UTC (26 minutes ago):

ENFB 122050Z AUTO 02023KT 9999NDV SCT031/// BKN070/// ///// Q//// W///S5

Closest aviation forecast (TAF) to Lier flyplass

Closest forecast is Oslo Gardermoen Airport, 30.8 nm (57.1 km) NE. Retrieved 2021/04/12 18:57 UTC (2 hours ago):

TAF ENGM 121700Z 1218/1318 36008KT 9000 -SNRA BKN020 TEMPO 1218/1303 1400 -SHSN BR BKN008 FEW020CB